N3475M KVUJ-KHBI
Flight info
| Callsign | N3475M |
|---|---|
| Flight time | N/A |
| Altitude | 4000 |
| Route | GABNE |
| Aircraft | BE36/L-BDFGLORY/S |
Departure
| Time | 2026-05-06 18:26 |
|---|---|
| Airport | Stanly County Airport (KVUJ) |
Arrival
| Time | N/A |
|---|---|
| Airport | Asheboro Regional Airport (KHBI) |
| Time | Latitude | Longitude | Altitude | Speed | Heading |
|---|---|---|---|---|---|
| 2026-05-06 18:24 | 35.42085 | -80.14470 | 583 ft | 0 kts | 331° |
| 2026-05-06 18:25 | 35.42109 | -80.14506 | 583 ft | 11 kts | 307° |
| 2026-05-06 18:25 | 35.42051 | -80.14616 | 585 ft | 47 kts | 217° |
| 2026-05-06 18:25 | 35.41615 | -80.15019 | 657 ft | 99 kts | 218° |
| 2026-05-06 18:26 | 35.41005 | -80.15577 | 835 ft | 123 kts | 216° |
| 2026-05-06 18:26 | 35.40264 | -80.16228 | 989 ft | 137 kts | 216° |
| 2026-05-06 18:26 | 35.39580 | -80.17095 | 1140 ft | 148 kts | 247° |
| 2026-05-06 18:26 | 35.39628 | -80.18339 | 1290 ft | 153 kts | 290° |
| 2026-05-06 18:27 | 35.40168 | -80.19477 | 1429 ft | 159 kts | 316° |
| 2026-05-06 18:27 | 35.41207 | -80.19886 | 1563 ft | 164 kts | 5° |
| 2026-05-06 18:27 | 35.42236 | -80.19295 | 1721 ft | 164 kts | 34° |
| 2026-05-06 18:27 | 35.43143 | -80.18543 | 2095 ft | 152 kts | 32° |
| 2026-05-06 18:28 | 35.44022 | -80.17891 | 2457 ft | 145 kts | 30° |
| 2026-05-06 18:28 | 35.44884 | -80.17280 | 2798 ft | 141 kts | 28° |
| 2026-05-06 18:28 | 35.45718 | -80.16689 | 3162 ft | 139 kts | 28° |
| 2026-05-06 18:28 | 35.46542 | -80.16115 | 3531 ft | 133 kts | 27° |
| 2026-05-06 18:29 | 35.47295 | -80.15593 | 3886 ft | 121 kts | 20° |
| 2026-05-06 18:29 | 35.48006 | -80.15099 | 4229 ft | 114 kts | 18° |
| 2026-05-06 18:29 | 35.48676 | -80.14625 | 4540 ft | 107 kts | 21° |
| 2026-05-06 18:29 | 35.49303 | -80.14198 | 4846 ft | 99 kts | 17° |
| 2026-05-06 18:30 | 35.49909 | -80.13791 | 5043 ft | 108 kts | 21° |
| 2026-05-06 18:30 | 35.50638 | -80.13261 | 5082 ft | 135 kts | 24° |
| 2026-05-06 18:30 | 35.52830 | -80.11709 | 5075 ft | 176 kts | 24° |
| 2026-05-06 18:30 | 35.57785 | -80.08238 | 5056 ft | 196 kts | 25° |
| 2026-05-06 18:31 | 35.58959 | -80.07409 | 5058 ft | 195 kts | 24° |
| 2026-05-06 18:31 | 35.60147 | -80.06599 | 5057 ft | 197 kts | 23° |
| 2026-05-06 18:31 | 35.61343 | -80.05778 | 5056 ft | 197 kts | 25° |
| 2026-05-06 18:31 | 35.64037 | -80.03859 | 5052 ft | 196 kts | 25° |
| 2026-05-06 18:32 | 35.73438 | -79.97250 | 5048 ft | 200 kts | 24° |
| 2026-05-06 18:32 | 35.79425 | -79.93025 | 5051 ft | 208 kts | 25° |
| 2026-05-06 18:32 | 35.80688 | -79.92135 | 5043 ft | 210 kts | 25° |
| 2026-05-06 18:32 | 35.81967 | -79.91231 | 4926 ft | 215 kts | 26° |
| 2026-05-06 18:33 | 35.83264 | -79.90316 | 4800 ft | 215 kts | 25° |
| 2026-05-06 18:33 | 35.84546 | -79.89414 | 4679 ft | 215 kts | 26° |
| 2026-05-06 18:33 | 35.85651 | -79.88161 | 4547 ft | 212 kts | 53° |
| 2026-05-06 18:33 | 35.86283 | -79.86615 | 4411 ft | 199 kts | 75° |
| 2026-05-06 18:34 | 35.86478 | -79.84961 | 4072 ft | 195 kts | 96° |
| 2026-05-06 18:34 | 35.86237 | -79.83364 | 3922 ft | 180 kts | 114° |
| 2026-05-06 18:34 | 35.85697 | -79.82079 | 3917 ft | 160 kts | 133° |
| 2026-05-06 18:34 | 35.85010 | -79.81070 | 3897 ft | 152 kts | 132° |
| 2026-05-06 18:35 | 35.84801 | -79.79786 | 3897 ft | 155 kts | 97° |
| 2026-05-06 18:35 | 35.84397 | -79.78695 | 3897 ft | 133 kts | 152° |
| 2026-05-06 18:35 | 35.83605 | -79.78267 | 3902 ft | 119 kts | 180° |
| 2026-05-06 18:35 | 35.82827 | -79.78358 | 3900 ft | 109 kts | 204° |
| 2026-05-06 18:36 | 35.82142 | -79.78675 | 3901 ft | 101 kts | 224° |
| 2026-05-06 18:36 | 35.81761 | -79.79381 | 3902 ft | 100 kts | 223° |
| 2026-05-06 18:36 | 35.81154 | -79.79798 | 3880 ft | 99 kts | 222° |
| 2026-05-06 18:36 | 35.80584 | -79.80331 | 3777 ft | 109 kts | 217° |
| 2026-05-06 18:37 | 35.79874 | -79.80930 | 3631 ft | 136 kts | 217° |
| 2026-05-06 18:37 | 35.79037 | -79.81637 | 3442 ft | 154 kts | 217° |
| 2026-05-06 18:37 | 35.78111 | -79.82404 | 3227 ft | 166 kts | 216° |
| 2026-05-06 18:37 | 35.77130 | -79.83213 | 2998 ft | 172 kts | 216° |
| 2026-05-06 18:38 | 35.76125 | -79.84042 | 2766 ft | 176 kts | 215° |
| 2026-05-06 18:38 | 35.75094 | -79.84816 | 2532 ft | 161 kts | 204° |
| 2026-05-06 18:38 | 35.74166 | -79.85248 | 2330 ft | 125 kts | 202° |
| 2026-05-06 18:38 | 35.73456 | -79.85592 | 2178 ft | 99 kts | 202° |
| 2026-05-06 18:39 | 35.72839 | -79.85890 | 2048 ft | 92 kts | 201° |
| 2026-05-06 18:39 | 35.72255 | -79.86174 | 1931 ft | 92 kts | 200° |
| 2026-05-06 18:39 | 35.71640 | -79.86468 | 1822 ft | 98 kts | 200° |
| 2026-05-06 18:40 | 35.70327 | -79.87104 | 1574 ft | 106 kts | 200° |
| 2026-05-06 18:40 | 35.69616 | -79.87452 | 1424 ft | 110 kts | 201° |
| 2026-05-06 18:40 | 35.68933 | -79.87779 | 1292 ft | 93 kts | 199° |
| 2026-05-06 18:40 | 35.68368 | -79.88046 | 1244 ft | 91 kts | 200° |
| 2026-05-06 18:41 | 35.67698 | -79.88368 | 1376 ft | 112 kts | 201° |
| 2026-05-06 18:41 | 35.66934 | -79.88730 | 1633 ft | 122 kts | 200° |
| 2026-05-06 18:41 | 35.66121 | -79.89121 | 1900 ft | 129 kts | 200° |
| 2026-05-06 18:41 | 35.65259 | -79.89542 | 2164 ft | 136 kts | 200° |
| 2026-05-06 18:42 | 35.64339 | -79.89838 | 2420 ft | 139 kts | 175° |
| 2026-05-06 18:42 | 35.63534 | -79.89231 | 2680 ft | 141 kts | 136° |
| 2026-05-06 18:42 | 35.62921 | -79.88295 | 2936 ft | 140 kts | 136° |
| 2026-05-06 18:42 | 35.62303 | -79.87326 | 3011 ft | 149 kts | 135° |
| 2026-05-06 18:43 | 35.61653 | -79.86265 | 3022 ft | 163 kts | 126° |
| 2026-05-06 18:43 | 35.61492 | -79.84816 | 3018 ft | 185 kts | 81° |
| 2026-05-06 18:43 | 35.61999 | -79.83328 | 3018 ft | 193 kts | 64° |
| 2026-05-06 18:43 | 35.62749 | -79.81929 | 3018 ft | 197 kts | 53° |
| 2026-05-06 18:44 | 35.63561 | -79.80563 | 3021 ft | 199 kts | 56° |
| 2026-05-06 18:44 | 35.64327 | -79.79158 | 3023 ft | 201 kts | 57° |
| 2026-05-06 18:44 | 35.65099 | -79.77719 | 3025 ft | 203 kts | 58° |
| 2026-05-06 18:44 | 35.65879 | -79.76262 | 3018 ft | 205 kts | 57° |
| 2026-05-06 18:45 | 35.67478 | -79.73290 | 3019 ft | 207 kts | 57° |
| 2026-05-06 18:45 | 35.70640 | -79.67406 | 3021 ft | 207 kts | 58° |
| 2026-05-06 18:45 | 35.73816 | -79.61490 | 3025 ft | 207 kts | 57° |
| 2026-05-06 18:45 | 35.76842 | -79.55833 | 3023 ft | 205 kts | 58° |
| 2026-05-06 18:46 | 35.77234 | -79.55102 | 3022 ft | 204 kts | 58° |
| 2026-05-06 18:46 | 35.77625 | -79.54371 | 3024 ft | 205 kts | 58° |
| 2026-05-06 18:46 | 35.78015 | -79.53640 | 3026 ft | 204 kts | 58° |
| 2026-05-06 18:46 | 35.78407 | -79.52908 | 3022 ft | 204 kts | 57° |
| 2026-05-06 18:47 | 35.80706 | -79.48606 | 3029 ft | 203 kts | 58° |
| 2026-05-06 18:47 | 35.83079 | -79.44165 | 3025 ft | 203 kts | 58° |
| 2026-05-06 18:47 | 35.83995 | -79.42439 | 3030 ft | 203 kts | 58° |
| 2026-05-06 18:47 | 35.84382 | -79.41709 | 3029 ft | 203 kts | 58° |
| 2026-05-06 18:48 | 35.84770 | -79.40981 | 3028 ft | 203 kts | 58° |
| 2026-05-06 18:48 | 35.85157 | -79.40256 | 3027 ft | 202 kts | 57° |
| 2026-05-06 18:48 | 35.85543 | -79.39531 | 3026 ft | 203 kts | 58° |
| 2026-05-06 18:48 | 35.85938 | -79.38815 | 3025 ft | 202 kts | 53° |
| 2026-05-06 18:49 | 35.86430 | -79.38201 | 3022 ft | 202 kts | 38° |
| 2026-05-06 18:49 | 35.87012 | -79.37709 | 3022 ft | 203 kts | 31° |
| 2026-05-06 18:49 | 35.90332 | -79.35286 | 3003 ft | 204 kts | 30° |
| 2026-05-06 18:49 | 35.94170 | -79.37148 | 3000 ft | 168 kts | 263° |
| 2026-05-06 18:50 | 35.90942 | -79.39899 | 3005 ft | 176 kts | 166° |
| 2026-05-06 18:50 | 35.88366 | -79.38858 | 3006 ft | 177 kts | 171° |
| 2026-05-06 18:50 | 35.87770 | -79.38671 | 3007 ft | 176 kts | 171° |
| 2026-05-06 18:50 | 35.87174 | -79.38526 | 3008 ft | 173 kts | 180° |
| 2026-05-06 18:51 | 35.86584 | -79.38551 | 3008 ft | 172 kts | 194° |
| 2026-05-06 18:51 | 35.86021 | -79.38781 | 2998 ft | 169 kts | 209° |
| 2026-05-06 18:51 | 35.85514 | -79.39152 | 2997 ft | 169 kts | 213° |
| 2026-05-06 18:51 | 35.84216 | -79.40127 | 3000 ft | 169 kts | 214° |
| 2026-05-06 18:52 | 35.80195 | -79.43133 | 2988 ft | 167 kts | 213° |
| 2026-05-06 18:52 | 35.77587 | -79.45086 | 2369 ft | 188 kts | 208° |
| 2026-05-06 18:52 | 35.77046 | -79.45497 | 2221 ft | 166 kts | 209° |
| 2026-05-06 18:52 | 35.76586 | -79.45850 | 2097 ft | 147 kts | 208° |
| 2026-05-06 18:53 | 35.76172 | -79.46158 | 1985 ft | 131 kts | 209° |
| 2026-05-06 18:53 | 35.75790 | -79.46445 | 1884 ft | 126 kts | 212° |
| 2026-05-06 18:53 | 35.75417 | -79.46721 | 1792 ft | 124 kts | 210° |
| 2026-05-06 18:53 | 35.75043 | -79.46992 | 1699 ft | 124 kts | 211° |
| 2026-05-06 18:54 | 35.74673 | -79.47259 | 1605 ft | 123 kts | 210° |
| 2026-05-06 18:54 | 35.74305 | -79.47526 | 1513 ft | 122 kts | 210° |
| 2026-05-06 18:54 | 35.73940 | -79.47797 | 1421 ft | 123 kts | 212° |
| 2026-05-06 18:54 | 35.73300 | -79.48276 | 1257 ft | 122 kts | 212° |
| 2026-05-06 18:55 | 35.72508 | -79.48879 | 1051 ft | 122 kts | 211° |
| 2026-05-06 18:55 | 35.72147 | -79.49149 | 957 ft | 121 kts | 211° |
| 2026-05-06 18:55 | 35.71807 | -79.49402 | 865 ft | 110 kts | 211° |
| 2026-05-06 18:55 | 35.71510 | -79.49632 | 802 ft | 92 kts | 212° |
| 2026-05-06 18:56 | 35.71244 | -79.49827 | 713 ft | 87 kts | 210° |
| 2026-05-06 18:56 | 35.70994 | -79.50011 | 629 ft | 78 kts | 210° |
| 2026-05-06 18:56 | 35.70786 | -79.50164 | 619 ft | 64 kts | 209° |
| 2026-05-06 18:56 | 35.70609 | -79.50295 | 616 ft | 55 kts | 211° |
| 2026-05-06 18:57 | 35.70471 | -79.50398 | 612 ft | 33 kts | 211° |
| 2026-05-06 18:57 | 35.70363 | -79.50480 | 611 ft | 53 kts | 210° |
| 2026-05-06 18:57 | 35.70129 | -79.50652 | 617 ft | 88 kts | 211° |
| 2026-05-06 18:57 | 35.69669 | -79.50992 | 786 ft | 108 kts | 208° |
| 2026-05-06 18:58 | 35.69022 | -79.51412 | 1193 ft | 108 kts | 207° |
| 2026-05-06 18:58 | 35.68313 | -79.51799 | 1538 ft | 112 kts | 204° |
| 2026-05-06 18:58 | 35.67545 | -79.52136 | 1816 ft | 123 kts | 181° |
| 2026-05-06 18:58 | 35.66821 | -79.51618 | 2081 ft | 129 kts | 122° |
| 2026-05-06 18:59 | 35.66526 | -79.50564 | 2348 ft | 137 kts | 87° |
| 2026-05-06 18:59 | 35.66567 | -79.49404 | 2598 ft | 138 kts | 113° |
| 2026-05-06 18:59 | 35.66111 | -79.48354 | 2852 ft | 144 kts | 113° |
| 2026-05-06 18:59 | 35.65840 | -79.47125 | 2997 ft | 158 kts | 106° |
| 2026-05-06 19:00 | 35.65558 | -79.45744 | 3017 ft | 173 kts | 109° |
| 2026-05-06 19:00 | 35.65254 | -79.44279 | 3016 ft | 180 kts | 110° |
| 2026-05-06 19:00 | 35.65071 | -79.42728 | 3004 ft | 190 kts | 88° |
| 2026-05-06 19:00 | 35.65364 | -79.41699 | 3006 ft | 197 kts | 60° |
| 2026-05-06 19:01 | 35.66476 | -79.40125 | 3628 ft | 170 kts | 51° |
| 2026-05-06 19:01 | 35.67198 | -79.38973 | 3799 ft | 176 kts | 54° |
| 2026-05-06 19:01 | 35.67914 | -79.37721 | 3927 ft | 180 kts | 56° |
| 2026-05-06 19:01 | 35.68635 | -79.36449 | 4053 ft | 182 kts | 54° |
| 2026-05-06 19:02 | 35.69359 | -79.35180 | 4183 ft | 182 kts | 55° |
| 2026-05-06 19:02 | 35.70092 | -79.33897 | 4307 ft | 184 kts | 56° |
| 2026-05-06 19:02 | 35.71806 | -79.30883 | 4598 ft | 185 kts | 55° |
| 2026-05-06 19:02 | 35.74769 | -79.25674 | 4996 ft | 195 kts | 54° |
| 2026-05-06 19:03 | 35.77970 | -79.20090 | 5009 ft | 202 kts | 54° |
| 2026-05-06 19:03 | 35.81050 | -79.14741 | 4849 ft | 210 kts | 55° |
| 2026-05-06 19:03 | 35.81903 | -79.13265 | 4728 ft | 212 kts | 55° |
| 2026-05-06 19:03 | 35.82762 | -79.11773 | 4608 ft | 214 kts | 54° |
| 2026-05-06 19:04 | 35.83635 | -79.10274 | 4487 ft | 215 kts | 54° |
| 2026-05-06 19:04 | 35.84520 | -79.08766 | 4252 ft | 222 kts | 54° |
| 2026-05-06 19:04 | 35.85433 | -79.07215 | 4011 ft | 224 kts | 56° |
| 2026-05-06 19:04 | 35.85958 | -79.05456 | 3747 ft | 219 kts | 91° |
| 2026-05-06 19:05 | 35.85625 | -79.03729 | 3493 ft | 206 kts | 127° |
| 2026-05-06 19:05 | 35.84638 | -79.02557 | 3245 ft | 194 kts | 156° |
| 2026-05-06 19:05 | 35.83386 | -79.02134 | 3017 ft | 183 kts | 182° |
| 2026-05-06 19:05 | 35.82153 | -79.02081 | 3008 ft | 172 kts | 182° |
| 2026-05-06 19:06 | 35.80974 | -79.02006 | 3004 ft | 167 kts | 181° |
| 2026-05-06 19:06 | 35.79824 | -79.01922 | 2999 ft | 164 kts | 181° |
| 2026-05-06 19:06 | 35.78692 | -79.01844 | 2994 ft | 162 kts | 182° |
| 2026-05-06 19:06 | 35.77574 | -79.01761 | 2994 ft | 161 kts | 182° |
| 2026-05-06 19:07 | 35.76458 | -79.01694 | 2993 ft | 159 kts | 186° |
| 2026-05-06 19:07 | 35.75749 | -79.01867 | 2991 ft | 156 kts | 204° |
| 2026-05-06 19:07 | 35.74391 | -79.02532 | 2992 ft | 157 kts | 203° |
| 2026-05-06 19:07 | 35.73715 | -79.02845 | 2994 ft | 156 kts | 204° |
| 2026-05-06 19:08 | 35.72701 | -79.03323 | 2987 ft | 156 kts | 204° |
| 2026-05-06 19:08 | 35.71664 | -79.03808 | 2827 ft | 164 kts | 203° |
| 2026-05-06 19:08 | 35.70218 | -79.04495 | 2533 ft | 171 kts | 202° |
| 2026-05-06 19:08 | 35.69463 | -79.04852 | 2385 ft | 174 kts | 201° |
| 2026-05-06 19:09 | 35.68337 | -79.05383 | 2154 ft | 164 kts | 201° |
| 2026-05-06 19:09 | 35.67369 | -79.05844 | 1948 ft | 134 kts | 200° |
| 2026-05-06 19:09 | 35.66585 | -79.06213 | 1778 ft | 108 kts | 199° |
| 2026-05-06 19:09 | 35.65955 | -79.06506 | 1639 ft | 89 kts | 200° |
| 2026-05-06 19:10 | 35.65414 | -79.06757 | 1507 ft | 79 kts | 199° |
| 2026-05-06 19:10 | 35.64909 | -79.06989 | 1418 ft | 82 kts | 199° |
| 2026-05-06 19:10 | 35.64331 | -79.07262 | 1344 ft | 96 kts | 199° |
| 2026-05-06 19:10 | 35.63676 | -79.07573 | 1228 ft | 105 kts | 200° |
| 2026-05-06 19:11 | 35.62976 | -79.07908 | 1084 ft | 112 kts | 200° |
| 2026-05-06 19:11 | 35.62237 | -79.08256 | 932 ft | 115 kts | 200° |
| 2026-05-06 19:11 | 35.61482 | -79.08610 | 774 ft | 117 kts | 200° |
| 2026-05-06 19:11 | 35.60793 | -79.08937 | 617 ft | 89 kts | 200° |
| 2026-05-06 19:12 | 35.60230 | -79.09199 | 478 ft | 91 kts | 199° |
| 2026-05-06 19:12 | 35.59642 | -79.09479 | 397 ft | 84 kts | 200° |
| 2026-05-06 19:12 | 35.59137 | -79.09714 | 275 ft | 75 kts | 199° |
| 2026-05-06 19:12 | 35.58729 | -79.09906 | 232 ft | 55 kts | 200° |
| 2026-05-06 19:13 | 35.58180 | -79.10157 | 253 ft | 109 kts | 199° |
| 2026-05-06 19:13 | 35.57426 | -79.10510 | 627 ft | 108 kts | 198° |
| 2026-05-06 19:13 | 35.56624 | -79.10813 | 709 ft | 137 kts | 195° |
| 2026-05-06 19:13 | 35.55678 | -79.11151 | 897 ft | 147 kts | 195° |
| 2026-05-06 19:14 | 35.54668 | -79.11513 | 1048 ft | 154 kts | 195° |
| 2026-05-06 19:14 | 35.53629 | -79.11880 | 1192 ft | 156 kts | 191° |
| 2026-05-06 19:14 | 35.52602 | -79.11641 | 1324 ft | 157 kts | 144° |
| 2026-05-06 19:14 | 35.52192 | -79.08955 | 1614 ft | 163 kts | 65° |
| 2026-05-06 19:15 | 35.53267 | -79.03575 | 2119 ft | 163 kts | 81° |
| 2026-05-06 19:15 | 35.54078 | -78.98460 | 3122 ft | 147 kts | 86° |
| 2026-05-06 19:15 | 35.54859 | -78.93558 | 4262 ft | 138 kts | 85° |
| 2026-05-06 19:15 | 35.55456 | -78.89815 | 5907 ft | 94 kts | 90° |
| 2026-05-06 19:16 | 35.55947 | -78.86548 | 6674 ft | 111 kts | 86° |
| 2026-05-06 19:16 | 35.56620 | -78.82295 | 7342 ft | 141 kts | 83° |
| 2026-05-06 19:16 | 35.57401 | -78.77363 | 7898 ft | 149 kts | 82° |
| 2026-05-06 19:16 | 35.58122 | -78.72771 | 8822 ft | 130 kts | 82° |
| 2026-05-06 19:17 | 35.58788 | -78.68536 | 9761 ft | 122 kts | 83° |
| 2026-05-06 19:17 | 35.59400 | -78.64520 | 10461 ft | 130 kts | 82° |
| 2026-05-06 19:17 | 35.60143 | -78.59749 | 11077 ft | 153 kts | 80° |
| 2026-05-06 19:17 | 35.60993 | -78.54298 | 11649 ft | 168 kts | 80° |
| 2026-05-06 19:18 | 35.61886 | -78.48494 | 12171 ft | 177 kts | 80° |
| 2026-05-06 19:18 | 35.62808 | -78.42502 | 12683 ft | 179 kts | 80° |
| 2026-05-06 19:18 | 35.63736 | -78.36454 | 13179 ft | 180 kts | 81° |
| 2026-05-06 19:18 | 35.64651 | -78.30412 | 13676 ft | 179 kts | 80° |
| 2026-05-06 19:19 | 35.65742 | -78.23269 | 14240 ft | 162 kts | 80° |
| 2026-05-06 19:19 | 35.67310 | -78.12936 | 15139 ft | 145 kts | 80° |
| 2026-05-06 19:19 | 35.68819 | -78.02824 | 15493 ft | 175 kts | 79° |
| 2026-05-06 19:19 | 35.70166 | -77.93880 | 15490 ft | 191 kts | 79° |
| 2026-05-06 19:20 | 35.72097 | -77.80893 | 15476 ft | 194 kts | 79° |
| 2026-05-06 19:20 | 35.74023 | -77.67851 | 15473 ft | 190 kts | 79° |
| 2026-05-06 19:20 | 35.75700 | -77.56399 | 15470 ft | 180 kts | 79° |
| 2026-05-06 19:20 | 35.77545 | -77.43728 | 15464 ft | 191 kts | 79° |
| 2026-05-06 19:21 | 35.79384 | -77.30953 | 15501 ft | 189 kts | 79° |
| 2026-05-06 19:21 | 35.81224 | -77.18137 | 15510 ft | 190 kts | 78° |
| 2026-05-06 19:21 | 35.83038 | -77.05357 | 15509 ft | 188 kts | 78° |
| 2026-05-06 19:21 | 35.84824 | -76.92687 | 15507 ft | 187 kts | 78° |
| 2026-05-06 19:22 | 35.86582 | -76.80135 | 15512 ft | 186 kts | 78° |
| 2026-05-06 19:22 | 35.88324 | -76.67563 | 15516 ft | 186 kts | 78° |
| 2026-05-06 19:22 | 35.90054 | -76.54997 | 15520 ft | 186 kts | 77° |
| 2026-05-06 19:22 | 35.91750 | -76.42579 | 15520 ft | 186 kts | 77° |
| 2026-05-06 19:23 | 35.93067 | -76.30486 | 15521 ft | 187 kts | 93° |
| 2026-05-06 19:23 | 35.93024 | -76.28143 | 15522 ft | 187 kts | 89° |
| 2026-05-06 19:23 | 35.93045 | -76.26538 | 15526 ft | 187 kts | 88° |
| 2026-05-06 19:23 | 35.93066 | -76.24965 | 15123 ft | 187 kts | 88° |
| 2026-05-06 19:24 | 35.93150 | -76.23308 | 14403 ft | 206 kts | 74° |
| 2026-05-06 19:24 | 35.93777 | -76.21393 | 14227 ft | 187 kts | 60° |
| 2026-05-06 19:24 | 35.95557 | -76.15475 | 13360 ft | 172 kts | 66° |
| 2026-05-06 19:24 | 35.97131 | -76.10040 | 12832 ft | 178 kts | 66° |
| 2026-05-06 19:25 | 35.98963 | -76.03678 | 12409 ft | 205 kts | 68° |
| 2026-05-06 19:25 | 36.00911 | -75.96882 | 11534 ft | 216 kts | 68° |
| 2026-05-06 19:25 | 36.02935 | -75.89826 | 8598 ft | 216 kts | 70° |
| 2026-05-06 19:25 | 36.04231 | -75.85295 | 6636 ft | 206 kts | 71° |
| 2026-05-06 19:26 | 36.05418 | -75.81138 | 4750 ft | 196 kts | 72° |
| 2026-05-06 19:26 | 36.06065 | -75.78884 | 3690 ft | 191 kts | 76° |
| 2026-05-06 19:26 | 36.06282 | -75.78113 | 3321 ft | 189 kts | 78° |
| 2026-05-06 19:26 | 36.06387 | -75.77331 | 2943 ft | 181 kts | 98° |
| 2026-05-06 19:27 | 36.06286 | -75.76591 | 2570 ft | 170 kts | 118° |
| 2026-05-06 19:27 | 36.06022 | -75.75958 | 2204 ft | 163 kts | 129° |
| 2026-05-06 19:27 | 36.04771 | -75.73595 | 1503 ft | 127 kts | 126° |
| 2026-05-06 19:27 | 36.04119 | -75.72226 | 1507 ft | 125 kts | 126° |
| 2026-05-06 19:28 | 36.03894 | -75.71757 | 1505 ft | 127 kts | 125° |
| 2026-05-06 19:28 | 36.03424 | -75.70741 | 1520 ft | 150 kts | 124° |
| 2026-05-06 19:28 | 36.02586 | -75.68810 | 1543 ft | 166 kts | 122° |
| 2026-05-06 19:28 | 36.02263 | -75.68079 | 1548 ft | 168 kts | 123° |
| 2026-05-06 19:29 | 36.01766 | -75.66907 | 1674 ft | 158 kts | 118° |
| 2026-05-06 19:29 | 36.01234 | -75.66663 | 1555 ft | 112 kts | 295° |
| 2026-05-06 19:29 | 36.02072 | -75.66505 | 948 ft | 125 kts | 23° |
| 2026-05-06 19:29 | 36.02776 | -75.66381 | 847 ft | 92 kts | 307° |
| 2026-05-06 19:30 | 36.02594 | -75.66974 | 415 ft | 91 kts | 199° |
| 2026-05-06 19:30 | 36.02007 | -75.67078 | 25 ft | 71 kts | 192° |
| 2026-05-06 19:30 | 36.01638 | -75.67200 | 15 ft | 45 kts | 195° |
| 2026-05-06 19:30 | 36.01441 | -75.67267 | 16 ft | 17 kts | 193° |
| 2026-05-06 19:31 | 36.01372 | -75.67285 | 15 ft | 8 kts | 80° |
| 2026-05-06 19:31 | 36.01677 | -75.67187 | 17 ft | 85 kts | 14° |
| 2026-05-06 19:31 | 36.02928 | -75.66292 | 615 ft | 110 kts | 105° |
| 2026-05-06 19:32 | 36.02189 | -75.65716 | 479 ft | 146 kts | 155° |
| 2026-05-06 19:32 | 35.99027 | -75.63722 | 671 ft | 166 kts | 154° |
| 2026-05-06 19:32 | 35.90621 | -75.58382 | 924 ft | 170 kts | 154° |
| 2026-05-06 19:32 | 35.81941 | -75.54745 | 1025 ft | 165 kts | 172° |
| 2026-05-06 19:33 | 35.73475 | -75.49751 | 1021 ft | 169 kts | 156° |
| 2026-05-06 19:33 | 35.64788 | -75.45869 | 828 ft | 164 kts | 170° |
| 2026-05-06 19:33 | 35.55682 | -75.44889 | 516 ft | 173 kts | 193° |
| 2026-05-06 19:33 | 35.46809 | -75.48398 | 514 ft | 174 kts | 185° |
| 2026-05-06 19:34 | 35.37312 | -75.48255 | 526 ft | 168 kts | 182° |
| 2026-05-06 19:34 | 35.29708 | -75.52643 | 532 ft | 168 kts | 225° |
| 2026-05-06 19:34 | 35.24785 | -75.59537 | 530 ft | 172 kts | 229° |
| 2026-05-06 19:34 | 35.24018 | -75.60399 | 318 ft | 124 kts | 214° |
| 2026-05-06 19:35 | 35.23653 | -75.61097 | 134 ft | 77 kts | 248° |
| 2026-05-06 19:35 | 35.23405 | -75.61536 | 22 ft | 55 kts | 237° |
| 2026-05-06 19:35 | 35.23094 | -75.62143 | 51 ft | 106 kts | 237° |
| 2026-05-06 19:35 | 35.22551 | -75.62470 | 517 ft | 97 kts | 175° |
| 2026-05-06 19:36 | 35.22730 | -75.62773 | 371 ft | 104 kts | 17° |
| 2026-05-06 19:36 | 35.23067 | -75.62175 | 18 ft | 79 kts | 53° |
| 2026-05-06 19:36 | 35.23330 | -75.61706 | 95 ft | 67 kts | 50° |
| 2026-05-06 19:36 | 35.23428 | -75.61203 | 217 ft | 85 kts | 126° |
| 2026-05-06 19:37 | 35.23243 | -75.60479 | 114 ft | 86 kts | 100° |
| 2026-05-06 19:37 | 35.23310 | -75.59889 | 6 ft | 53 kts | 86° |
| 2026-05-06 19:37 | 35.23352 | -75.59329 | 19 ft | 86 kts | 87° |
| 2026-05-06 19:37 | 35.23427 | -75.58766 | 95 ft | 107 kts | 65° |
| 2026-05-06 19:38 | 35.23755 | -75.59236 | 470 ft | 112 kts | 256° |
| 2026-05-06 19:38 | 35.23666 | -75.60232 | 521 ft | 118 kts | 278° |
| 2026-05-06 19:38 | 35.23658 | -75.61062 | 165 ft | 76 kts | 244° |
| 2026-05-06 19:38 | 35.23429 | -75.61518 | 38 ft | 49 kts | 214° |
| 2026-05-06 19:39 | 35.23073 | -75.61738 | 169 ft | 54 kts | 176° |
| 2026-05-06 19:39 | 35.22308 | -75.61178 | 228 ft | 75 kts | 153° |
| 2026-05-06 19:39 | 35.22841 | -75.59864 | 859 ft | 118 kts | 2° |
| 2026-05-06 19:39 | 35.23872 | -75.60330 | 851 ft | 106 kts | 283° |
| 2026-05-06 19:40 | 35.23627 | -75.61179 | 141 ft | 105 kts | 214° |
| 2026-05-06 19:40 | 35.23320 | -75.61714 | 25 ft | 63 kts | 236° |
| 2026-05-06 19:40 | 35.23123 | -75.62076 | 13 ft | 46 kts | 234° |